• Join FlightAware (Why Join?)
  • Login
  • US Flag 
01:24PM EDT


 

Airport Tracker/Info


-or-


 

Live Flight TrackerFlight Track Log ✈ DAL344 ✈ 13-Jul-2013 ✈ KPIT - KATL

Flight Track Log - Related Links

Times and Time Zones

All times are in EDT time to prevent confusion due to time zone crossing. See the DAL344 flight status page for this flight to view local times or setup timezone preferences in your user account.

Time Position Orientation Groundspeed Altitude Reporting Facility
EDT Latitude Longitude Course Direction KTS MPH feet Rate Location/Type
05:31PM 40.4269 -80.1331 215° Southwest 244 281 4,900  Level Cleveland Center
05:32PM 40.1659 -80.1340 214° Southwest  Level FlightAware Approximate
05:32PM 40.3625 -80.1500 191° South 269 310 7,200  Level Cleveland Center
05:33PM 40.0859 -80.2041 214° Southwest  Level FlightAware Approximate
05:33PM 40.2917 -80.1722 193° South 269 310 9,400  Level Cleveland Center
05:34PM 40.0071 -80.2762 217° Southwest  Level FlightAware Approximate
05:34PM 40.2103 -80.1917 190° South 281 323 10,900  Level Cleveland Center
05:35PM 39.9300 -80.3514 215° Southwest  Level FlightAware Approximate
05:35PM 40.1167 -80.2167 192° South 317 365 13,200  Level Cleveland Center
05:36PM 39.8508 -80.4227 215° Southwest  Level FlightAware Approximate
05:36PM 40.0356 -80.2767 210° Southwest 332 382 15,100  Level Cleveland Center
05:37PM 39.9503 -80.3447 211° Southwest 346 398 16,900 1,500 Climbing Cleveland Center
05:38PM 39.8628 -80.4128 211° Southwest 357 411 18,200 1,440 Climbing Cleveland Center
05:39PM 39.7753 -80.4886 214° Southwest 367 422 19,800 1,500 Climbing Cleveland Center
05:40PM 39.6942 -80.5722 218° Southwest 379 436 21,300 1,500 Climbing Cleveland Center
05:40PM 39.6375 -80.6319 219° Southwest 389 448 22,100 1,200 Climbing Indianapolis Center
05:41PM 39.5447 -80.7106 213° Southwest 396 456 23,300 1,080 Climbing Indianapolis Center
05:42PM 39.4553 -80.7994 218° Southwest 404 465 24,400 1,260 Climbing Indianapolis Center
05:43PM 39.3686 -80.8978 221° Southwest 412 474 25,900 1,380 Climbing Indianapolis Center
05:44PM 39.2819 -80.9969 222° Southwest 416 479 27,200 1,140 Climbing Indianapolis Center
05:45PM 39.1939 -81.0942 221° Southwest 417 480 28,300 960 Climbing Indianapolis Center
05:46PM 39.0942 -81.1761 213° Southwest 423 487 29,300 1,020 Climbing Indianapolis Center
05:47PM 38.9908 -81.2519 210° Southwest 427 491 30,400 1,260 Climbing Indianapolis Center
05:48PM 38.8669 -81.3394 209° Southwest 422 486 31,900 1,200 Climbing Indianapolis Center
05:49PM 38.7681 -81.4150 211° Southwest 418 481 32,900 540 Climbing Indianapolis Center
05:50PM 38.6700 -81.4928 212° Southwest 424 488 33,000 240 Climbing Indianapolis Center
05:51PM 38.5667 -81.5739 212° Southwest 432 497 33,500 480 Climbing Indianapolis Center
05:52PM 38.4547 -81.6767 216° Southwest 435 501 34,000 240 Climbing Indianapolis Center
05:53PM 38.3572 -81.7672 216° Southwest 431 496 34,000  Level Indianapolis Center
05:54PM 38.2558 -81.8414 210° Southwest 420 483 34,000  Level Indianapolis Center
05:55PM 38.1472 -81.8972 202° Southwest 421 484 34,000  Level Indianapolis Center
05:56PM 38.0358 -81.9314 194° South 414 476 34,000  Level Indianapolis Center
05:58PM 37.9250 -81.9672 194° South 411 473 34,000  Level Indianapolis Center
05:59PM 37.8089 -82.0081 196° South 417 480 34,000  Level Indianapolis Center
06:00PM 37.7028 -82.0681 204° Southwest 418 481 34,000  Level Indianapolis Center
06:01PM 37.5778 -82.1369 204° Southwest 418 481 34,000  Level Indianapolis Center
06:02PM 37.4689 -82.1892 201° Southwest 417 480 34,000  Level Indianapolis Center
06:03PM 37.3586 -82.2372 199° South 417 480 34,000  Level Indianapolis Center
06:04PM 37.2481 -82.2842 199° South 419 482 34,000  Level Indianapolis Center
06:05PM 37.1386 -82.3331 200° South 417 480 34,000  Level Indianapolis Center
06:06PM 37.0297 -82.3800 199° South 412 474 34,000  Level Indianapolis Center
06:07PM 36.9178 -82.4281 199° South 418 481 34,000 -420 Level Indianapolis Center
06:08PM 36.8064 -82.4756 199° South 419 482 33,200 -840 Descending Indianapolis Center
06:09PM 36.6939 -82.5222 198° South 420 483 32,300 -780 Descending Indianapolis Center
06:09PM 36.6186 -82.5542 199° South 422 486 32,000 -240 Descending Atlanta Center
06:10PM 36.5067 -82.6028 199° South 427 491 32,000  Level Atlanta Center
06:11PM 36.3967 -82.6561 201° Southwest 422 486 32,000  Level Atlanta Center
06:12PM 36.2847 -82.7072 200° South 427 491 32,000  Level Atlanta Center
06:13PM 36.1622 -82.7606 199° South 427 491 32,000  Level Atlanta Center
06:14PM 36.0522 -82.8136 201° Southwest 427 491 32,000  Level Atlanta Center
06:15PM 35.9422 -82.8642 200° South 427 491 32,000  Level Atlanta Center
06:16PM 35.8300 -82.9144 200° South 427 491 32,000  Level Atlanta Center
06:17PM 35.7219 -82.9644 201° Southwest 421 484 32,000 -60 Level Atlanta Center
06:18PM 35.6117 -83.0169 201° Southwest 427 491 31,900 -540 Descending Atlanta Center
06:19PM 35.4994 -83.0617 198° South 427 491 31,000 -900 Descending Atlanta Center
06:20PM 35.3872 -83.1039 197° South 422 486 30,200 -540 Descending Atlanta Center
06:21PM 35.2769 -83.1508 199° South 422 486 30,000 -480 Descending Atlanta Center
06:22PM 35.1667 -83.2003 200° South 422 486 29,300 -840 Descending Atlanta Center
06:23PM 35.0522 -83.2497 199° South 429 494 28,400 -900 Descending Atlanta Center
06:24PM 34.9419 -83.3014 201° Southwest 429 494 27,500 -1,440 Descending Atlanta Center
06:25PM 34.8297 -83.3531 201° Southwest 429 494 25,600 -2,100 Descending Atlanta Center
06:26PM 34.7233 -83.3994 200° South 424 488 23,400 -2,880 Descending Atlanta Center
06:27PM 34.6275 -83.4406 199° South 413 475 19,900 -2,220 Descending Atlanta Center
06:28PM 34.5278 -83.4917 203° Southwest 405 466 19,000 -480 Descending Atlanta Center
06:29PM 34.4194 -83.5378 199° South 405 466 19,000 -900 Level Atlanta Center
06:30PM 34.3214 -83.5836 201° Southwest 400 460 17,200 -2,460 Descending Atlanta Center
06:31PM 34.2361 -83.6694 220° Southwest 394 453 14,100 -1,620 Descending Atlanta Center
06:32PM 34.1508 -83.7578 221° Southwest 402 463 14,000 -60 Descending Atlanta Center
06:33PM 34.0633 -83.8583 224° Southwest 402 463 14,000 -480 Level Atlanta Center
06:35PM 33.9833 -83.9667 228° Southwest 407 468 13,100 -960 Descending Atlanta TRACON
06:36PM 33.9000 -84.0833 229° Southwest 399 459 12,100 -600 Descending Atlanta TRACON
06:37PM 33.8333 -84.1833 231° Southwest 381 438 12,000 -60 Descending Atlanta TRACON
06:38PM 33.7833 -84.2667 234° Southwest 297 342 12,000 -420 Level Atlanta TRACON
06:39PM 33.7500 -84.3333 239° Southwest 272 313 11,200 -1,260 Descending Atlanta TRACON
06:40PM 33.7333 -84.4167 256° West 266 306 9,500 -1,860 Descending Atlanta TRACON
06:41PM 33.7333 -84.5000 270° West 259 298 7,500 -1,920 Descending Atlanta TRACON
06:42PM 33.7333 -84.5833 270° West 249 287 5,700 -1,620 Descending Atlanta TRACON
06:43PM 33.6833 -84.6333 220° Southwest 227 261 4,300 -1,440 Descending Atlanta TRACON